sensor_id;sensor_type;location;lat;lon;timestamp;pressure;altitude;pressure_sealevel;temperature;humidity
42691;BME280;28306;55.744;37.578;2023-02-13T00:00:43;100061.38;;;26.04;15.54
42691;BME280;28306;55.744;37.578;2023-02-13T00:03:08;100054.00;;;26.04;15.70
42691;BME280;28306;55.744;37.578;2023-02-13T00:05:34;100056.75;;;26.04;15.67
42691;BME280;28306;55.744;37.578;2023-02-13T00:07:59;100042.28;;;26.04;15.79
42691;BME280;28306;55.744;37.578;2023-02-13T00:10:25;100043.09;;;26.04;15.62
42691;BME280;28306;55.744;37.578;2023-02-13T00:12:50;100038.47;;;26.05;15.70
42691;BME280;28306;55.744;37.578;2023-02-13T00:15:16;100030.03;;;26.06;15.51
42691;BME280;28306;55.744;37.578;2023-02-13T00:17:41;100032.75;;;26.06;15.68
42691;BME280;28306;55.744;37.578;2023-02-13T00:20:07;100023.75;;;26.06;15.83
42691;BME280;28306;55.744;37.578;2023-02-13T00:22:35;100019.13;;;26.06;15.90
42691;BME280;28306;55.744;37.578;2023-02-13T00:25:01;100018.31;;;26.06;15.49
42691;BME280;28306;55.744;37.578;2023-02-13T00:27:27;100012.84;;;26.06;15.83
42691;BME280;28306;55.744;37.578;2023-02-13T00:29:52;100011.78;;;26.07;15.77
42691;BME280;28306;55.744;37.578;2023-02-13T00:32:18;100009.84;;;26.07;15.58
42691;BME280;28306;55.744;37.578;2023-02-13T00:34:44;100003.31;;;26.08;15.49
42691;BME280;28306;55.744;37.578;2023-02-13T00:37:09;99996.78;;;26.10;15.60
42691;BME280;28306;55.744;37.578;2023-02-13T00:39:35;99994.63;;;26.12;15.62
42691;BME280;28306;55.744;37.578;2023-02-13T00:42:00;99990.25;;;26.11;15.43
42691;BME280;28306;55.744;37.578;2023-02-13T00:44:26;99983.97;;;26.10;15.53
42691;BME280;28306;55.744;37.578;2023-02-13T00:46:52;99974.69;;;26.11;15.45
42691;BME280;28306;55.744;37.578;2023-02-13T00:49:18;99966.25;;;26.13;15.58
42691;BME280;28306;55.744;37.578;2023-02-13T00:51:43;99963.53;;;26.13;15.62
42691;BME280;28306;55.744;37.578;2023-02-13T00:54:09;99963.53;;;26.13;15.47
42691;BME280;28306;55.744;37.578;2023-02-13T00:56:35;99967.09;;;26.13;15.67
42691;BME280;28306;55.744;37.578;2023-02-13T00:59:00;99967.91;;;26.14;15.41
42691;BME280;28306;55.744;37.578;2023-02-13T01:01:26;99970.63;;;26.14;15.53
42691;BME280;28306;55.744;37.578;2023-02-13T01:03:51;99968.16;;;26.12;15.40
42691;BME280;28306;55.744;37.578;2023-02-13T01:06:17;99967.09;;;26.13;15.62
42691;BME280;28306;55.744;37.578;2023-02-13T01:08:42;99965.16;;;26.14;15.79
42691;BME280;28306;55.744;37.578;2023-02-13T01:11:07;99960.53;;;26.14;15.55
42691;BME280;28306;55.744;37.578;2023-02-13T01:13:34;99957.00;;;26.14;15.38
42691;BME280;28306;55.744;37.578;2023-02-13T01:15:59;99953.72;;;26.17;15.33
42691;BME280;28306;55.744;37.578;2023-02-13T01:18:25;99956.72;;;26.15;15.42
42691;BME280;28306;55.744;37.578;2023-02-13T01:20:54;99957.53;;;26.16;15.48
42691;BME280;28306;55.744;37.578;2023-02-13T01:23:21;99944.75;;;26.16;15.53
42691;BME280;28306;55.744;37.578;2023-02-13T01:25:46;99943.91;;;26.16;15.64
42691;BME280;28306;55.744;37.578;2023-02-13T01:28:12;99941.75;;;26.18;15.53
42691;BME280;28306;55.744;37.578;2023-02-13T01:30:37;99935.72;;;26.16;15.61
42691;BME280;28306;55.744;37.578;2023-02-13T01:33:02;99924.81;;;26.16;15.56
42691;BME280;28306;55.744;37.578;2023-02-13T01:35:28;99921.00;;;26.17;15.58
42691;BME280;28306;55.744;37.578;2023-02-13T01:37:53;99908.19;;;26.17;15.37
42691;BME280;28306;55.744;37.578;2023-02-13T01:40:19;99906.03;;;26.19;15.66
42691;BME280;28306;55.744;37.578;2023-02-13T01:42:44;99911.47;;;26.19;15.42
42691;BME280;28306;55.744;37.578;2023-02-13T01:47:46;99906.28;;;26.18;15.36
42691;BME280;28306;55.744;37.578;2023-02-13T01:50:18;99901.91;;;26.17;15.72
42691;BME280;28306;55.744;37.578;2023-02-13T01:52:47;99898.38;;;26.16;15.43
42691;BME280;28306;55.744;37.578;2023-02-13T01:55:14;99887.47;;;26.16;15.43
42691;BME280;28306;55.744;37.578;2023-02-13T01:57:40;99885.00;;;26.15;15.41
42691;BME280;28306;55.744;37.578;2023-02-13T02:00:09;99881.44;;;26.14;15.37
42691;BME280;28306;55.744;37.578;2023-02-13T02:02:50;99873.25;;;26.14;15.54
42691;BME280;28306;55.744;37.578;2023-02-13T02:05:20;99864.00;;;26.15;15.55
42691;BME280;28306;55.744;37.578;2023-02-13T02:07:46;99866.47;;;26.17;15.71
42691;BME280;28306;55.744;37.578;2023-02-13T02:10:19;99868.91;;;26.18;15.40
42691;BME280;28306;55.744;37.578;2023-02-13T02:12:48;99873.03;;;26.21;15.39
42691;BME280;28306;55.744;37.578;2023-02-13T02:15:17;99868.66;;;26.20;15.48
42691;BME280;28306;55.744;37.578;2023-02-13T02:17:43;99862.94;;;26.21;15.51
42691;BME280;28306;55.744;37.578;2023-02-13T02:49:37;99813.03;;;26.21;15.35
42691;BME280;28306;55.744;37.578;2023-02-13T02:57:47;99805.94;;;26.20;15.38
42691;BME280;28306;55.744;37.578;2023-02-13T03:00:32;99799.41;;;26.21;15.36
42691;BME280;28306;55.744;37.578;2023-02-13T03:03:19;99802.13;;;26.21;15.45
42691;BME280;28306;55.744;37.578;2023-02-13T03:06:11;99799.13;;;26.22;15.39
42691;BME280;28306;55.744;37.578;2023-02-13T03:08:43;99787.38;;;26.22;15.39
42691;BME280;28306;55.744;37.578;2023-02-13T03:11:28;99788.22;;;26.22;15.39
42691;BME280;28306;55.744;37.578;2023-02-13T03:14:12;99775.38;;;26.23;15.23
42691;BME280;28306;55.744;37.578;2023-02-13T03:16:39;99788.75;;;26.24;15.34
42691;BME280;28306;55.744;37.578;2023-02-13T03:25:14;99784.38;;;26.23;15.40
42691;BME280;28306;55.744;37.578;2023-02-13T03:38:48;99741.28;;;26.20;15.32
42691;BME280;28306;55.744;37.578;2023-02-13T03:41:21;99731.22;;;26.21;15.34
42691;BME280;28306;55.744;37.578;2023-02-13T03:46:14;99716.47;;;26.22;15.35
42691;BME280;28306;55.744;37.578;2023-02-13T03:48:40;99712.66;;;26.23;15.28
42691;BME280;28306;55.744;37.578;2023-02-13T03:51:27;99721.13;;;26.21;15.39
42691;BME280;28306;55.744;37.578;2023-02-13T03:53:55;99715.66;;;26.21;15.39
42691;BME280;28306;55.744;37.578;2023-02-13T03:56:21;99721.13;;;26.21;15.26
42691;BME280;28306;55.744;37.578;2023-02-13T03:59:06;99717.84;;;26.19;15.42
42691;BME280;28306;55.744;37.578;2023-02-13T04:01:42;99729.56;;;26.20;15.23
42691;BME280;28306;55.744;37.578;2023-02-13T04:04:20;99721.38;;;26.20;15.23
42691;BME280;28306;55.744;37.578;2023-02-13T04:06:48;99720.31;;;26.21;15.33
42691;BME280;28306;55.744;37.578;2023-02-13T04:09:16;99723.03;;;26.21;15.23
42691;BME280;28306;55.744;37.578;2023-02-13T04:12:05;99725.75;;;26.21;15.38
42691;BME280;28306;55.744;37.578;2023-02-13T04:17:04;99700.38;;;26.20;15.32
42691;BME280;28306;55.744;37.578;2023-02-13T04:19:30;99695.19;;;26.19;15.52
42691;BME280;28306;55.744;37.578;2023-02-13T04:21:57;99684.03;;;26.20;15.32
42691;BME280;28306;55.744;37.578;2023-02-13T04:24:24;99685.13;;;26.19;15.34
42691;BME280;28306;55.744;37.578;2023-02-13T04:26:50;99677.22;;;26.18;15.21
42691;BME280;28306;55.744;37.578;2023-02-13T04:29:16;99665.47;;;26.17;15.58
42691;BME280;28306;55.744;37.578;2023-02-13T04:31:42;99660.84;;;26.18;15.58
42691;BME280;28306;55.744;37.578;2023-02-13T04:34:07;99651.84;;;26.17;15.33
42691;BME280;28306;55.744;37.578;2023-02-13T04:36:32;99661.94;;;26.17;15.24
42691;BME280;28306;55.744;37.578;2023-02-13T04:38:58;99651.03;;;26.17;15.41
42691;BME280;28306;55.744;37.578;2023-02-13T04:41:23;99650.75;;;26.18;15.29
42691;BME280;28306;55.744;37.578;2023-02-13T04:43:49;99646.94;;;26.19;15.42
42691;BME280;28306;55.744;37.578;2023-02-13T04:46:17;99639.84;;;26.18;15.47
42691;BME280;28306;55.744;37.578;2023-02-13T04:48:42;99639.84;;;26.18;15.27
42691;BME280;28306;55.744;37.578;2023-02-13T04:51:07;99637.66;;;26.20;15.58
42691;BME280;28306;55.744;37.578;2023-02-13T04:53:33;99631.66;;;26.18;15.16
42691;BME280;28306;55.744;37.578;2023-02-13T04:55:58;99628.66;;;26.20;15.30
42691;BME280;28306;55.744;37.578;2023-02-13T04:58:24;99622.41;;;26.19;15.45
42691;BME280;28306;55.744;37.578;2023-02-13T05:00:49;99621.84;;;26.17;15.30
42691;BME280;28306;55.744;37.578;2023-02-13T05:03:15;99606.59;;;26.16;15.40
42691;BME280;28306;55.744;37.578;2023-02-13T05:05:40;99605.47;;;26.17;15.32
42691;BME280;28306;55.744;37.578;2023-02-13T05:08:07;99606.31;;;26.18;15.28
42691;BME280;28306;55.744;37.578;2023-02-13T05:10:33;99597.88;;;26.19;15.54
42691;BME280;28306;55.744;37.578;2023-02-13T05:12:58;99592.41;;;26.19;15.38
42691;BME280;28306;55.744;37.578;2023-02-13T05:15:24;99587.75;;;26.20;15.33
42691;BME280;28306;55.744;37.578;2023-02-13T05:17:49;99589.69;;;26.19;15.38
42691;BME280;28306;55.744;37.578;2023-02-13T05:20:15;99583.66;;;26.17;15.54
42691;BME280;28306;55.744;37.578;2023-02-13T05:22:44;99595.69;;;26.16;15.33
42691;BME280;28306;55.744;37.578;2023-02-13T05:25:28;99589.13;;;26.17;15.27
42691;BME280;28306;55.744;37.578;2023-02-13T05:27:53;99588.31;;;26.17;15.20
42691;BME280;28306;55.744;37.578;2023-02-13T05:30:19;99580.13;;;26.17;15.30
42691;BME280;28306;55.744;37.578;2023-02-13T05:32:44;99581.22;;;26.16;15.30
42691;BME280;28306;55.744;37.578;2023-02-13T05:35:10;99575.75;;;26.16;15.38
42691;BME280;28306;55.744;37.578;2023-02-13T05:37:35;99566.50;;;26.17;15.33
42691;BME280;28306;55.744;37.578;2023-02-13T05:40:00;99572.75;;;26.17;15.23
42691;BME280;28306;55.744;37.578;2023-02-13T05:42:26;99577.41;;;26.17;15.41
42691;BME280;28306;55.744;37.578;2023-02-13T05:44:51;99576.31;;;26.18;15.55
42691;BME280;28306;55.744;37.578;2023-02-13T05:47:17;99579.06;;;26.18;15.33
42691;BME280;28306;55.744;37.578;2023-02-13T05:49:42;99573.03;;;26.16;15.43
42691;BME280;28306;55.744;37.578;2023-02-13T05:52:08;99585.88;;;26.15;15.55
42691;BME280;28306;55.744;37.578;2023-02-13T05:54:33;99578.50;;;26.16;15.29
42691;BME280;28306;55.744;37.578;2023-02-13T05:56:59;99581.22;;;26.16;15.25
42691;BME280;28306;55.744;37.578;2023-02-13T05:59:24;99578.22;;;26.17;15.39
42691;BME280;28306;55.744;37.578;2023-02-13T06:01:50;99572.75;;;26.17;15.32
42691;BME280;28306;55.744;37.578;2023-02-13T06:04:15;99574.94;;;26.15;15.27
42691;BME280;28306;55.744;37.578;2023-02-13T06:06:41;99580.41;;;26.15;15.37
42691;BME280;28306;55.744;37.578;2023-02-13T06:09:06;99571.41;;;26.15;15.37
42691;BME280;28306;55.744;37.578;2023-02-13T06:11:32;99575.75;;;26.16;15.17
42691;BME280;28306;55.744;37.578;2023-02-13T06:13:58;99568.16;;;26.18;15.41
42691;BME280;28306;55.744;37.578;2023-02-13T06:16:23;99571.16;;;26.16;15.59
42691;BME280;28306;55.744;37.578;2023-02-13T06:18:48;99573.88;;;26.16;15.60
42691;BME280;28306;55.744;37.578;2023-02-13T06:21:14;99567.31;;;26.17;15.35
42691;BME280;28306;55.744;37.578;2023-02-13T06:23:39;99574.69;;;26.17;15.23
42691;BME280;28306;55.744;37.578;2023-02-13T06:26:06;99570.88;;;26.18;15.26
42691;BME280;28306;55.744;37.578;2023-02-13T06:28:32;99570.59;;;26.19;15.48
42691;BME280;28306;55.744;37.578;2023-02-13T06:30:57;99561.03;;;26.17;15.35
42691;BME280;28306;55.744;37.578;2023-02-13T06:33:23;99562.69;;;26.18;15.22
42691;BME280;28306;55.744;37.578;2023-02-13T06:35:48;99560.78;;;26.18;15.35
42691;BME280;28306;55.744;37.578;2023-02-13T06:38:14;99562.41;;;26.19;15.25
42691;BME280;28306;55.744;37.578;2023-02-13T06:40:43;99550.38;;;26.20;15.32
42691;BME280;28306;55.744;37.578;2023-02-13T06:43:08;99534.88;;;26.21;15.30
42691;BME280;28306;55.744;37.578;2023-02-13T06:45:34;99537.31;;;26.22;15.30
42691;BME280;28306;55.744;37.578;2023-02-13T06:48:01;99540.84;;;26.23;15.34
42691;BME280;28306;55.744;37.578;2023-02-13T06:50:26;99540.56;;;26.24;15.16
42691;BME280;28306;55.744;37.578;2023-02-13T06:52:52;99539.50;;;26.25;15.48
42691;BME280;28306;55.744;37.578;2023-02-13T06:55:17;99533.19;;;26.25;15.28
42691;BME280;28306;55.744;37.578;2023-02-13T06:57:43;99532.13;;;26.26;15.46
42691;BME280;28306;55.744;37.578;2023-02-13T07:00:10;99528.59;;;26.25;15.34
42691;BME280;28306;55.744;37.578;2023-02-13T07:02:37;99520.41;;;26.25;15.16
42691;BME280;28306;55.744;37.578;2023-02-13T07:05:03;99516.03;;;26.24;15.34
42691;BME280;28306;55.744;37.578;2023-02-13T07:07:31;99517.94;;;26.24;15.55
42691;BME280;28306;55.744;37.578;2023-02-13T07:09:57;99508.66;;;26.25;15.19
42691;BME280;28306;55.744;37.578;2023-02-13T07:12:22;99515.22;;;26.24;15.28
42691;BME280;28306;55.744;37.578;2023-02-13T07:14:48;99506.75;;;26.25;15.40
42691;BME280;28306;55.744;37.578;2023-02-13T07:17:13;99502.13;;;26.26;15.41
42691;BME280;28306;55.744;37.578;2023-02-13T07:19:39;99499.38;;;26.26;15.40
42691;BME280;28306;55.744;37.578;2023-02-13T07:22:04;99497.47;;;26.26;15.37
42691;BME280;28306;55.744;37.578;2023-02-13T07:24:30;99491.75;;;26.28;15.27
42691;BME280;28306;55.744;37.578;2023-02-13T07:26:57;99492.56;;;26.29;15.15
42691;BME280;28306;55.744;37.578;2023-02-13T07:29:23;99479.75;;;26.29;15.43
42691;BME280;28306;55.744;37.578;2023-02-13T07:31:48;99481.38;;;26.30;15.30
42691;BME280;28306;55.744;37.578;2023-02-13T07:34:14;99475.66;;;26.32;15.23
42691;BME280;28306;55.744;37.578;2023-02-13T07:36:39;99484.63;;;26.32;15.32
42691;BME280;28306;55.744;37.578;2023-02-13T07:39:05;99473.44;;;26.34;15.24
42691;BME280;28306;55.744;37.578;2023-02-13T07:41:30;99476.19;;;26.34;15.13
42691;BME280;28306;55.744;37.578;2023-02-13T07:43:56;99471.53;;;26.34;15.12
42691;BME280;28306;55.744;37.578;2023-02-13T07:46:21;99469.59;;;26.35;15.30
42691;BME280;28306;55.744;37.578;2023-02-13T07:48:47;99473.16;;;26.35;15.13
42691;BME280;28306;55.744;37.578;2023-02-13T07:51:12;99465.78;;;26.36;15.23
42691;BME280;28306;55.744;37.578;2023-02-13T07:53:38;99473.97;;;26.36;15.31
42691;BME280;28306;55.744;37.578;2023-02-13T07:56:04;99472.06;;;26.36;15.19
42691;BME280;28306;55.744;37.578;2023-02-13T07:58:30;99469.59;;;26.35;15.43
42691;BME280;28306;55.744;37.578;2023-02-13T08:00:55;99467.72;;;26.35;15.07
42691;BME280;28306;55.744;37.578;2023-02-13T08:03:21;99469.59;;;26.35;15.10
42691;BME280;28306;55.744;37.578;2023-02-13T08:05:46;99473.16;;;26.35;15.16
42691;BME280;28306;55.744;37.578;2023-02-13T08:08:13;99473.69;;;26.37;15.16
42691;BME280;28306;55.744;37.578;2023-02-13T08:10:39;99466.03;;;26.39;15.07
42691;BME280;28306;55.744;37.578;2023-02-13T08:13:23;99462.22;;;26.40;15.43
42691;BME280;28306;55.744;37.578;2023-02-13T08:15:49;99456.78;;;26.40;15.43
42691;BME280;28306;55.744;37.578;2023-02-13T08:18:14;99451.31;;;26.40;15.29
42691;BME280;28306;55.744;37.578;2023-02-13T08:20:39;99449.13;;;26.42;15.43
42691;BME280;28306;55.744;37.578;2023-02-13T08:23:06;99449.13;;;26.42;15.17
42691;BME280;28306;55.744;37.578;2023-02-13T08:25:33;99438.75;;;26.44;15.38
42691;BME280;28306;55.744;37.578;2023-02-13T08:27:59;99431.94;;;26.42;15.25
42691;BME280;28306;55.744;37.578;2023-02-13T08:30:24;99430.31;;;26.41;15.22
42691;BME280;28306;55.744;37.578;2023-02-13T08:32:50;99421.84;;;26.42;15.30
42691;BME280;28306;55.744;37.578;2023-02-13T08:35:15;99419.94;;;26.43;15.39
42691;BME280;28306;55.744;37.578;2023-02-13T08:37:41;99405.19;;;26.44;15.32
42691;BME280;28306;55.744;37.578;2023-02-13T08:40:07;99409.56;;;26.45;15.23
42691;BME280;28306;55.744;37.578;2023-02-13T08:42:36;99401.38;;;26.45;15.53
42691;BME280;28306;55.744;37.578;2023-02-13T08:45:01;99395.91;;;26.45;15.49
42691;BME280;28306;55.744;37.578;2023-02-13T08:47:27;99400.56;;;26.44;15.57
42691;BME280;28306;55.744;37.578;2023-02-13T08:49:53;99391.56;;;26.44;15.55
42691;BME280;28306;55.744;37.578;2023-02-13T08:52:18;99395.13;;;26.44;15.45
42691;BME280;28306;55.744;37.578;2023-02-13T08:54:43;99379.31;;;26.36;15.69
42691;BME280;28306;55.744;37.578;2023-02-13T08:57:09;99395.63;;;26.47;15.60
42691;BME280;28306;55.744;37.578;2023-02-13T08:59:34;99379.28;;;26.47;15.54
42691;BME280;28306;55.744;37.578;2023-02-13T09:02:00;99378.19;;;26.48;15.56
42691;BME280;28306;55.744;37.578;2023-02-13T09:04:25;99382.53;;;26.49;15.35
42691;BME280;28306;55.744;37.578;2023-02-13T09:06:52;99380.63;;;26.49;15.75
42691;BME280;28306;55.744;37.578;2023-02-13T09:09:17;99380.63;;;26.49;15.44
42691;BME280;28306;55.744;37.578;2023-02-13T09:11:43;99378.72;;;26.50;15.41
42691;BME280;28306;55.744;37.578;2023-02-13T09:14:08;99373.25;;;26.50;15.63
42691;BME280;28306;55.744;37.578;2023-02-13T09:16:34;99378.72;;;26.50;15.59
42691;BME280;28306;55.744;37.578;2023-02-13T09:18:59;99370.00;;;26.48;15.51
42691;BME280;28306;55.744;37.578;2023-02-13T09:21:25;99373.53;;;26.48;15.48
42691;BME280;28306;55.744;37.578;2023-02-13T09:23:50;99368.06;;;26.48;15.44
42691;BME280;28306;55.744;37.578;2023-02-13T09:26:17;99370.81;;;26.48;15.56
42691;BME280;28306;55.744;37.578;2023-02-13T09:28:43;99350.91;;;26.48;15.75
42691;BME280;28306;55.744;37.578;2023-02-13T09:31:12;99356.34;;;26.48;15.58
42691;BME280;28306;55.744;37.578;2023-02-13T09:33:39;99357.16;;;26.48;15.63
42691;BME280;28306;55.744;37.578;2023-02-13T09:36:05;99336.97;;;26.49;15.55
42691;BME280;28306;55.744;37.578;2023-02-13T09:38:31;99333.13;;;26.50;15.67
42691;BME280;28306;55.744;37.578;2023-02-13T09:40:57;99332.03;;;26.51;15.52
42691;BME280;28306;55.744;37.578;2023-02-13T09:43:29;99328.50;;;26.51;15.75
42691;BME280;28306;55.744;37.578;2023-02-13T09:45:57;99319.75;;;26.54;15.56
42691;BME280;28306;55.744;37.578;2023-02-13T09:48:31;99314.59;;;26.52;15.60
42691;BME280;28306;55.744;37.578;2023-02-13T09:50:58;99304.19;;;26.54;15.59
42691;BME280;28306;55.744;37.578;2023-02-13T09:53:25;99307.44;;;26.56;15.49
42691;BME280;28306;55.744;37.578;2023-02-13T09:58:32;99304.44;;;26.58;15.67
42691;BME280;28306;55.744;37.578;2023-02-13T10:01:02;99306.06;;;26.59;15.53
42691;BME280;28306;55.744;37.578;2023-02-13T10:03:30;99306.88;;;26.59;15.55
42691;BME280;28306;55.744;37.578;2023-02-13T10:08:44;99301.97;;;26.61;15.53
42691;BME280;28306;55.744;37.578;2023-02-13T10:19:01;99285.59;;;26.61;15.57
42691;BME280;28306;55.744;37.578;2023-02-13T10:21:29;99282.59;;;26.63;15.56
42691;BME280;28306;55.744;37.578;2023-02-13T10:23:58;99281.75;;;26.62;15.53
42691;BME280;28306;55.744;37.578;2023-02-13T10:26:27;99282.88;;;26.61;15.76
42691;BME280;28306;55.744;37.578;2023-02-13T10:29:54;99292.94;;;26.61;15.73
42691;BME280;28306;55.744;37.578;2023-02-13T10:32:12;99285.31;;;26.63;15.87
42691;BME280;28306;55.744;37.578;2023-02-13T10:34:43;99280.13;;;26.61;15.58
42691;BME280;28306;55.744;37.578;2023-02-13T10:37:14;99282.28;;;26.65;15.69
42691;BME280;28306;55.744;37.578;2023-02-13T10:39:42;99276.84;;;26.65;15.59
42691;BME280;28306;55.744;37.578;2023-02-13T10:55:05;99251.72;;;26.68;15.36
42691;BME280;28306;55.744;37.578;2023-02-13T11:00:28;99247.09;;;26.68;15.52
42691;BME280;28306;55.744;37.578;2023-02-13T11:02:57;99238.06;;;26.68;15.39
42691;BME280;28306;55.744;37.578;2023-02-13T11:05:24;99231.00;;;26.67;15.59
42691;BME280;28306;55.744;37.578;2023-02-13T11:07:50;99226.34;;;26.67;15.42
42691;BME280;28306;55.744;37.578;2023-02-13T11:10:17;99230.72;;;26.68;15.52
42691;BME280;28306;55.744;37.578;2023-02-13T11:12:43;99217.06;;;26.68;15.45
42691;BME280;28306;55.744;37.578;2023-02-13T11:15:19;99203.41;;;26.68;15.78
42691;BME280;28306;55.744;37.578;2023-02-13T11:17:44;99203.72;;;26.67;15.76
42691;BME280;28306;55.744;37.578;2023-02-13T11:22:48;99202.31;;;26.69;15.85
42691;BME280;28306;55.744;37.578;2023-02-13T11:25:19;99206.38;;;26.72;15.91
42691;BME280;28306;55.744;37.578;2023-02-13T11:27:44;99203.38;;;26.73;15.92
42691;BME280;28306;55.744;37.578;2023-02-13T11:35:36;99205.81;;;26.75;15.99
42691;BME280;28306;55.744;37.578;2023-02-13T11:38:15;99190.81;;;26.72;16.16
42691;BME280;28306;55.744;37.578;2023-02-13T11:40:45;99180.72;;;26.73;15.88
42691;BME280;28306;55.744;37.578;2023-02-13T11:43:23;99188.91;;;26.73;15.87
42691;BME280;28306;55.744;37.578;2023-02-13T11:46:06;99175.56;;;26.71;16.28
42691;BME280;28306;55.744;37.578;2023-02-13T11:48:33;99172.81;;;26.71;15.96
42691;BME280;28306;55.744;37.578;2023-02-13T11:50:58;99170.38;;;26.70;16.16
42691;BME280;28306;55.744;37.578;2023-02-13T11:53:26;99166.53;;;26.71;16.15
42691;BME280;28306;55.744;37.578;2023-02-13T11:58:29;99158.06;;;26.72;16.00
42691;BME280;28306;55.744;37.578;2023-02-13T12:03:33;99158.06;;;26.72;16.28
42691;BME280;28306;55.744;37.578;2023-02-13T12:08:30;99145.81;;;26.70;16.02
42691;BME280;28306;55.744;37.578;2023-02-13T12:10:57;99143.91;;;26.70;16.25
42691;BME280;28306;55.744;37.578;2023-02-13T12:13:25;99134.91;;;26.70;16.11
42691;BME280;28306;55.744;37.578;2023-02-13T12:15:58;99137.34;;;26.71;16.43
42691;BME280;28306;55.744;37.578;2023-02-13T12:18:35;99132.41;;;26.73;16.41
42691;BME280;28306;55.744;37.578;2023-02-13T12:21:08;99128.03;;;26.72;16.40
42691;BME280;28306;55.744;37.578;2023-02-13T12:28:59;99129.97;;;26.72;16.20
42691;BME280;28306;55.744;37.578;2023-02-13T12:31:35;99129.16;;;26.71;16.16
42691;BME280;28306;55.744;37.578;2023-02-13T12:37:09;99117.72;;;26.69;16.23
42691;BME280;28306;55.744;37.578;2023-02-13T12:39:30;99114.19;;;26.69;16.18
42691;BME280;28306;55.744;37.578;2023-02-13T13:10:19;99080.38;;;26.65;16.51
42691;BME280;28306;55.744;37.578;2023-02-13T13:17:41;99081.22;;;26.65;16.54
42691;BME280;28306;55.744;37.578;2023-02-13T13:22:43;99074.91;;;26.65;16.63
42691;BME280;28306;55.744;37.578;2023-02-13T13:27:42;99084.75;;;26.66;16.47
42691;BME280;28306;55.744;37.578;2023-02-13T13:30:17;99076.56;;;26.66;16.49
42691;BME280;28306;55.744;37.578;2023-02-13T13:32:43;99077.38;;;26.66;16.42
42691;BME280;28306;55.744;37.578;2023-02-13T13:35:13;99078.19;;;26.67;16.38
42691;BME280;28306;55.744;37.578;2023-02-13T13:37:41;99077.38;;;26.66;16.68
42691;BME280;28306;55.744;37.578;2023-02-13T13:40:24;99076.56;;;26.66;16.35
42691;BME280;28306;55.744;37.578;2023-02-13T13:48:13;99060.19;;;26.66;16.42
42691;BME280;28306;55.744;37.578;2023-02-13T13:50:40;99057.44;;;26.66;16.40
42691;BME280;28306;55.744;37.578;2023-02-13T14:03:33;99055.25;;;26.68;16.41
42691;BME280;28306;55.744;37.578;2023-02-13T14:06:02;99047.88;;;26.68;16.46
42691;BME280;28306;55.744;37.578;2023-02-13T14:13:36;99040.78;;;26.67;16.28
42691;BME280;28306;55.744;37.578;2023-02-13T14:16:03;99044.31;;;26.68;16.41
42691;BME280;28306;55.744;37.578;2023-02-13T14:18:29;99026.34;;;26.67;16.47
42691;BME280;28306;55.744;37.578;2023-02-13T14:20:59;99019.25;;;26.66;16.54
42691;BME280;28306;55.744;37.578;2023-02-13T14:28:41;99015.72;;;26.65;16.53
42691;BME280;28306;55.744;37.578;2023-02-13T14:33:53;99012.16;;;26.65;16.54
42691;BME280;28306;55.744;37.578;2023-02-13T14:36:20;99008.59;;;26.64;16.47
42691;BME280;28306;55.744;37.578;2023-02-13T14:38:56;99012.16;;;26.65;16.35
42691;BME280;28306;55.744;37.578;2023-02-13T14:46:52;99005.38;;;26.62;16.30
42691;BME280;28306;55.744;37.578;2023-02-13T14:51:44;98993.94;;;26.60;16.31
42691;BME280;28306;55.744;37.578;2023-02-13T14:54:16;98993.09;;;26.59;16.32
42691;BME280;28306;55.744;37.578;2023-02-13T14:56:45;98988.47;;;26.60;16.36
42691;BME280;28306;55.744;37.578;2023-02-13T14:59:18;98979.16;;;26.61;16.64
42691;BME280;28306;55.744;37.578;2023-02-13T15:06:51;98971.53;;;26.63;16.67
42691;BME280;28306;55.744;37.578;2023-02-13T15:11:58;98950.00;;;26.61;16.48
42691;BME280;28306;55.744;37.578;2023-02-13T15:14:29;98944.53;;;26.61;16.54
42691;BME280;28306;55.744;37.578;2023-02-13T15:17:16;98938.25;;;26.61;16.31
42691;BME280;28306;55.744;37.578;2023-02-13T15:19:48;98923.28;;;26.58;16.51
42691;BME280;28306;55.744;37.578;2023-02-13T15:22:23;98918.63;;;26.59;16.50
42691;BME280;28306;55.744;37.578;2023-02-13T15:24:53;98919.44;;;26.59;16.50
42691;BME280;28306;55.744;37.578;2023-02-13T15:27:27;98919.44;;;26.59;16.62
42691;BME280;28306;55.744;37.578;2023-02-13T15:32:26;98913.69;;;26.61;16.63
42691;BME280;28306;55.744;37.578;2023-02-13T15:34:52;98909.38;;;26.60;16.49
42691;BME280;28306;55.744;37.578;2023-02-13T15:37:21;98918.34;;;26.60;16.64
42691;BME280;28306;55.744;37.578;2023-02-13T15:39:47;98903.91;;;26.60;16.79
42691;BME280;28306;55.744;37.578;2023-02-13T15:42:13;98901.97;;;26.60;16.42
42691;BME280;28306;55.744;37.578;2023-02-13T15:44:39;98878.53;;;26.59;16.57
42691;BME280;28306;55.744;37.578;2023-02-13T15:47:05;98888.34;;;26.60;16.42
42691;BME280;28306;55.744;37.578;2023-02-13T15:49:35;98878.81;;;26.58;16.70
42691;BME280;28306;55.744;37.578;2023-02-13T15:52:07;98871.47;;;26.58;16.70
42691;BME280;28306;55.744;37.578;2023-02-13T15:54:33;98884.81;;;26.60;16.64
42691;BME280;28306;55.744;37.578;2023-02-13T15:57:01;98866.00;;;26.58;16.78
42691;BME280;28306;55.744;37.578;2023-02-13T15:59:29;98872.25;;;26.59;16.48
42691;BME280;28306;55.744;37.578;2023-02-13T16:01:56;98868.72;;;26.58;16.53
42691;BME280;28306;55.744;37.578;2023-02-13T16:04:22;98856.69;;;26.59;16.69
42691;BME280;28306;55.744;37.578;2023-02-13T16:06:49;98860.25;;;26.60;16.74
42691;BME280;28306;55.744;37.578;2023-02-13T16:09:31;98850.44;;;26.59;16.56
42691;BME280;28306;55.744;37.578;2023-02-13T16:14:29;98844.47;;;26.57;16.70